Terminal Aerodrome Forecast
Issued by NWS

Home | Current Version | Previous Version | Text Only | Print | Product List | Glossary On
Versions: 1 2 3 4 5 6 7 8 9 10 11 12 13 14 15 16 17
000
FTUS45 KMSO 201728
TAFSMN
TAF
KSMN 201728Z 2018/2118 VRB04KT P6SM OVC100
     FM211000 VRB03KT P6SM VCSH OVC050
     FM211300 32003KT 6SM -RA OVC015
      AMD NOT SKED=

USA.gov is the U.S. government's official web portal to all federal, state and local government web resources and services.